createdAt,value
2023-05-05T00:01:55.004Z,9.03
2023-05-05T00:04:24.898Z,9.06
2023-05-05T00:06:54.932Z,9.07
2023-05-05T00:09:24.745Z,9.09
2023-05-05T00:11:54.911Z,9.06
2023-05-05T00:14:24.898Z,9.02
2023-05-05T00:16:55.191Z,8.89
2023-05-05T00:19:25.847Z,8.62
2023-05-05T00:21:56.566Z,8.23
2023-05-05T00:24:33.687Z,7.96
2023-05-05T00:27:03.694Z,8.06
2023-05-05T00:29:33.706Z,8.18
2023-05-05T00:32:03.763Z,8.20
2023-05-05T00:34:34.716Z,8.16
2023-05-05T00:37:20.989Z,8.04
2023-05-05T00:39:51.552Z,7.94
2023-05-05T00:42:21.678Z,7.86
2023-05-05T00:44:51.732Z,7.80
2023-05-05T00:47:22.112Z,7.73
2023-05-05T00:49:52.544Z,7.64
2023-05-05T00:52:22.430Z,7.60
2023-05-05T00:54:52.413Z,7.53
2023-05-05T00:57:22.373Z,7.52
2023-05-05T00:59:53.517Z,7.47
2023-05-05T01:02:23.440Z,7.41
2023-05-05T01:04:53.854Z,7.29
2023-05-05T01:07:33.480Z,7.26
2023-05-05T01:10:18.892Z,7.14
2023-05-05T01:12:57.110Z,7.07
2023-05-05T01:15:33.963Z,7.06
2023-05-05T01:18:12.145Z,7.08
2023-05-05T01:20:50.002Z,7.11
2023-05-05T01:23:37.941Z,7.13
2023-05-05T01:26:27.812Z,7.14
2023-05-05T01:29:25.076Z,7.12
2023-05-05T01:31:56.935Z,7.13
2023-05-05T01:34:32.809Z,7.11
2023-05-05T01:37:10.750Z,7.09
2023-05-05T01:39:43.840Z,7.04
2023-05-05T01:42:14.749Z,6.93
2023-05-05T01:44:46.990Z,6.76
2023-05-05T01:47:22.633Z,6.65
2023-05-05T01:49:53.078Z,6.67
2023-05-05T01:52:24.761Z,6.66
2023-05-05T01:54:56.170Z,6.67
2023-05-05T01:57:29.677Z,6.70
2023-05-05T02:00:05.793Z,6.72
2023-05-05T02:02:45.685Z,6.73
2023-05-05T02:05:18.828Z,6.73
2023-05-05T02:07:49.716Z,6.72
2023-05-05T02:10:20.047Z,6.69
2023-05-05T02:12:51.351Z,6.70
2023-05-05T02:15:24.014Z,6.69
2023-05-05T02:17:54.916Z,6.67
2023-05-05T02:20:27.592Z,6.61
2023-05-05T02:22:57.793Z,6.49
2023-05-05T02:25:32.945Z,6.45
2023-05-05T02:28:04.666Z,6.51
2023-05-05T02:30:38.267Z,6.52
2023-05-05T02:33:12.188Z,6.52
2023-05-05T02:35:44.493Z,6.53
2023-05-05T02:38:19.189Z,6.51
2023-05-05T02:40:52.641Z,6.49
2023-05-05T02:43:25.125Z,6.43
2023-05-05T02:45:55.156Z,6.45
2023-05-05T02:48:25.275Z,6.46
2023-05-05T02:50:55.833Z,6.35
2023-05-05T02:53:30.911Z,6.28
2023-05-05T02:56:12.839Z,6.28
2023-05-05T02:58:54.801Z,6.28
2023-05-05T03:01:38.021Z,6.30
2023-05-05T03:04:16.500Z,6.32
2023-05-05T03:06:55.000Z,6.31
2023-05-05T03:09:30.721Z,6.22
2023-05-05T03:12:04.271Z,6.24
2023-05-05T03:14:43.678Z,6.24
2023-05-05T03:17:18.034Z,6.22
2023-05-05T03:19:48.993Z,6.19
2023-05-05T03:22:19.451Z,6.07
2023-05-05T03:24:52.342Z,6.00
2023-05-05T03:27:25.794Z,6.00
2023-05-05T03:29:56.150Z,6.01
2023-05-05T03:32:26.807Z,5.97
2023-05-05T03:34:57.758Z,6.02
2023-05-05T03:37:31.707Z,6.08
2023-05-05T03:40:02.672Z,6.13
2023-05-05T03:42:33.906Z,6.14
2023-05-05T03:45:04.128Z,6.17
2023-05-05T03:47:34.449Z,6.17
2023-05-05T03:50:04.717Z,6.19
2023-05-05T03:52:34.900Z,6.25
2023-05-05T03:55:05.089Z,6.29
2023-05-05T03:57:35.202Z,6.34
2023-05-05T04:00:11.574Z,6.40
2023-05-05T04:02:44.299Z,6.45
2023-05-05T04:05:15.676Z,6.51
2023-05-05T04:07:47.082Z,6.60
2023-05-05T04:10:18.802Z,6.68
2023-05-05T04:12:48.745Z,6.76
2023-05-05T04:15:20.497Z,6.86
2023-05-05T04:17:50.659Z,6.96
2023-05-05T04:20:21.236Z,7.05
2023-05-05T04:22:52.768Z,7.16
2023-05-05T04:25:24.208Z,7.24
2023-05-05T04:27:54.396Z,7.34
2023-05-05T04:30:24.553Z,7.41
2023-05-05T04:32:54.697Z,7.48
2023-05-05T04:35:24.835Z,7.55
2023-05-05T04:37:55.580Z,7.61
2023-05-05T04:40:26.433Z,7.66
2023-05-05T04:42:56.868Z,7.75
2023-05-05T04:45:27.306Z,7.84
2023-05-05T04:47:57.765Z,7.97
2023-05-05T04:50:27.752Z,8.08
2023-05-05T04:52:57.799Z,8.14
2023-05-05T04:55:28.035Z,8.16
2023-05-05T04:57:58.078Z,8.23
2023-05-05T05:00:28.608Z,8.31
2023-05-05T05:02:58.428Z,8.38
2023-05-05T05:05:29.006Z,8.50
2023-05-05T05:07:59.912Z,8.69
2023-05-05T05:10:30.041Z,8.90
2023-05-05T05:13:00.366Z,9.10
2023-05-05T05:15:30.712Z,9.30
2023-05-05T05:18:00.802Z,9.44
2023-05-05T05:20:31.967Z,9.54
2023-05-05T05:23:02.295Z,9.65
2023-05-05T05:25:33.655Z,9.75
2023-05-05T05:28:10.199Z,9.88
2023-05-05T05:30:54.592Z,10.08
2023-05-05T05:33:24.654Z,10.26
2023-05-05T05:35:55.821Z,10.41
2023-05-05T05:38:25.816Z,10.60
2023-05-05T05:40:57.852Z,10.81
2023-05-05T05:43:27.849Z,10.99
2023-05-05T05:45:57.893Z,11.22
2023-05-05T05:48:28.308Z,11.43
2023-05-05T05:50:58.475Z,11.68
2023-05-05T05:53:28.931Z,11.93
2023-05-05T05:56:01.056Z,12.13
2023-05-05T05:58:31.360Z,12.27
2023-05-05T06:01:01.949Z,12.37
2023-05-05T06:03:35.661Z,12.39
2023-05-05T06:06:05.059Z,12.48
2023-05-05T06:08:34.957Z,12.59
2023-05-05T06:11:05.160Z,12.65
2023-05-05T06:13:35.194Z,12.64
2023-05-05T06:16:05.758Z,12.65
2023-05-05T06:18:35.991Z,12.68
2023-05-05T06:21:08.861Z,12.81
2023-05-05T06:23:39.609Z,12.89
2023-05-05T06:26:09.648Z,13.03
2023-05-05T06:28:41.650Z,13.06
2023-05-05T06:31:12.556Z,13.20
2023-05-05T06:33:42.639Z,13.31
2023-05-05T06:36:12.951Z,13.42
2023-05-05T06:38:43.205Z,13.40
2023-05-05T06:41:13.048Z,13.42
2023-05-05T06:43:44.799Z,13.50
2023-05-05T06:46:15.370Z,13.47
2023-05-05T06:48:45.299Z,13.55
2023-05-05T06:51:15.860Z,13.64
2023-05-05T06:53:45.896Z,13.69
2023-05-05T06:56:16.879Z,13.81
2023-05-05T06:58:47.118Z,13.72
2023-05-05T07:01:17.297Z,13.84
2023-05-05T07:03:47.428Z,13.75
2023-05-05T07:06:17.223Z,13.77
2023-05-05T07:08:47.069Z,13.88
2023-05-05T07:11:17.112Z,13.92
2023-05-05T07:13:48.977Z,13.95
2023-05-05T07:16:19.570Z,13.81
2023-05-05T07:18:49.696Z,13.68
2023-05-05T07:21:21.040Z,13.82
2023-05-05T07:23:51.324Z,13.96
2023-05-05T07:26:22.339Z,13.97
2023-05-05T07:28:52.554Z,13.83
2023-05-05T07:31:23.779Z,13.64
2023-05-05T07:33:54.880Z,13.80
2023-05-05T07:36:28.660Z,14.01
2023-05-05T07:39:00.232Z,14.21
2023-05-05T07:41:30.484Z,14.34
2023-05-05T07:44:03.801Z,13.96
2023-05-05T07:46:32.922Z,13.99
2023-05-05T07:49:06.242Z,14.10
2023-05-05T07:51:36.590Z,14.23
2023-05-05T07:54:07.589Z,14.29
2023-05-05T07:56:42.710Z,14.07
2023-05-05T07:59:13.420Z,14.21
2023-05-05T08:01:43.724Z,14.42
2023-05-05T08:04:13.822Z,14.39
2023-05-05T08:06:44.181Z,14.63
2023-05-05T08:09:14.452Z,14.86
2023-05-05T08:11:46.306Z,14.92
2023-05-05T08:14:16.264Z,15.00
2023-05-05T08:16:46.141Z,15.19
2023-05-05T08:19:28.882Z,15.08
2023-05-05T08:22:01.189Z,15.37
2023-05-05T08:24:31.931Z,15.22
2023-05-05T08:27:04.801Z,15.44
2023-05-05T08:29:35.063Z,15.59
2023-05-05T08:32:13.056Z,15.74
2023-05-05T08:34:44.347Z,15.88
2023-05-05T08:37:14.274Z,16.08
2023-05-05T08:39:45.968Z,16.26
2023-05-05T08:42:32.761Z,16.34
2023-05-05T08:45:10.570Z,16.49
2023-05-05T08:47:42.773Z,16.04
2023-05-05T08:50:14.150Z,16.13
2023-05-05T08:52:51.236Z,16.24
2023-05-05T08:55:26.494Z,16.44
2023-05-05T08:57:58.384Z,16.48
2023-05-05T09:00:29.766Z,16.51
2023-05-05T09:03:01.686Z,16.44
2023-05-05T09:05:32.075Z,16.49
2023-05-05T09:08:02.085Z,16.60
2023-05-05T09:10:33.220Z,16.77
2023-05-05T09:13:04.703Z,16.82
2023-05-05T09:15:35.906Z,16.72
2023-05-05T09:18:08.564Z,16.71
2023-05-05T09:20:40.355Z,16.79
2023-05-05T09:23:13.144Z,16.85
2023-05-05T09:25:46.894Z,16.92
2023-05-05T09:28:20.818Z,16.80
2023-05-05T09:30:51.024Z,16.99
2023-05-05T09:33:32.494Z,17.00
2023-05-05T09:36:02.675Z,17.05
2023-05-05T09:38:32.512Z,17.05
2023-05-05T09:41:02.683Z,17.18
2023-05-05T09:43:52.849Z,17.36
2023-05-05T09:46:23.534Z,17.69
2023-05-05T09:48:55.218Z,17.59
2023-05-05T09:51:31.566Z,17.38
2023-05-05T09:54:01.524Z,17.17
2023-05-05T09:56:40.587Z,17.30
2023-05-05T09:59:11.479Z,17.23
2023-05-05T10:01:44.796Z,17.02
2023-05-05T10:04:25.096Z,17.01
2023-05-05T10:06:56.823Z,17.00
2023-05-05T10:09:27.505Z,17.12
2023-05-05T10:12:00.191Z,17.02
2023-05-05T10:14:34.396Z,17.22
2023-05-05T10:17:07.533Z,17.42
2023-05-05T10:19:39.348Z,17.59
2023-05-05T10:22:10.452Z,17.86
2023-05-05T10:24:45.244Z,17.76
2023-05-05T10:27:24.630Z,17.41
2023-05-05T10:30:02.637Z,17.25
2023-05-05T10:35:21.509Z,17.64
2023-05-05T10:37:52.788Z,17.78
2023-05-05T10:40:23.890Z,17.87
2023-05-05T10:42:56.044Z,18.18
2023-05-05T10:45:26.141Z,18.19
2023-05-05T10:47:59.614Z,18.12
2023-05-05T10:50:34.993Z,18.06
2023-05-05T10:53:17.012Z,18.07
2023-05-05T10:55:52.910Z,18.32
2023-05-05T10:58:46.856Z,18.20
2023-05-05T11:01:32.502Z,18.12
2023-05-05T11:04:24.403Z,18.12
2023-05-05T11:07:25.629Z,18.11
2023-05-05T11:10:01.952Z,18.03
2023-05-05T11:12:33.685Z,18.02
2023-05-05T11:15:37.145Z,18.05
2023-05-05T11:18:08.203Z,18.23
2023-05-05T11:21:07.350Z,18.16
2023-05-05T11:23:37.258Z,18.23
2023-05-05T11:26:07.473Z,18.11
2023-05-05T11:28:56.772Z,17.71
2023-05-05T11:31:27.176Z,17.99
2023-05-05T11:34:17.143Z,17.69
2023-05-05T11:36:47.361Z,17.81
2023-05-05T11:39:29.980Z,17.57
2023-05-05T11:42:18.787Z,17.70
2023-05-05T11:44:49.364Z,17.78
2023-05-05T11:47:34.977Z,17.75
2023-05-05T11:50:23.008Z,17.46
2023-05-05T11:52:53.148Z,17.37
2023-05-05T11:55:23.933Z,17.50
2023-05-05T11:57:54.360Z,17.68
2023-05-05T12:00:34.795Z,17.49
2023-05-05T12:03:05.784Z,17.47
2023-05-05T12:05:36.903Z,17.63
2023-05-05T12:08:08.171Z,17.75
2023-05-05T12:10:38.160Z,17.56
2023-05-05T12:13:19.562Z,17.58
2023-05-05T12:15:50.049Z,17.67
2023-05-05T12:18:23.225Z,17.66
2023-05-05T12:20:53.417Z,17.31
2023-05-05T12:23:23.620Z,17.52
2023-05-05T12:25:53.710Z,17.24
2023-05-05T12:28:23.939Z,17.11
2023-05-05T12:31:03.237Z,17.34
2023-05-05T12:33:40.790Z,17.46
2023-05-05T12:36:11.843Z,17.60
2023-05-05T12:38:42.439Z,17.41
2023-05-05T12:41:17.960Z,17.46
2023-05-05T12:43:48.131Z,17.71
2023-05-05T12:46:18.207Z,17.95
2023-05-05T12:49:04.527Z,17.93
2023-05-05T12:51:35.757Z,18.05
2023-05-05T12:54:07.494Z,18.35
2023-05-05T12:56:40.486Z,18.33
2023-05-05T12:59:11.770Z,18.20
2023-05-05T13:01:51.838Z,18.23
2023-05-05T13:04:23.322Z,18.40
2023-05-05T13:07:10.421Z,18.46
2023-05-05T13:09:41.759Z,18.46
2023-05-05T13:12:12.187Z,18.19
2023-05-05T13:14:43.286Z,18.11
2023-05-05T13:17:13.982Z,18.45
2023-05-05T13:19:45.987Z,18.32
2023-05-05T13:22:16.327Z,18.15
2023-05-05T13:24:51.641Z,18.15
2023-05-05T13:27:25.879Z,18.48
2023-05-05T13:29:54.731Z,18.59
2023-05-05T13:32:24.993Z,18.58
2023-05-05T13:34:55.241Z,18.80
2023-05-05T13:37:27.297Z,18.95
2023-05-05T13:40:00.762Z,18.66
2023-05-05T13:42:30.922Z,18.44
2023-05-05T13:45:01.089Z,18.54
2023-05-05T13:47:31.553Z,18.54
2023-05-05T13:50:01.877Z,18.07
2023-05-05T13:52:33.447Z,17.76
2023-05-05T13:55:05.295Z,17.92
2023-05-05T13:57:35.530Z,17.69
2023-05-05T14:00:07.544Z,17.89
2023-05-05T14:02:37.718Z,18.26
2023-05-05T14:05:10.277Z,18.56
2023-05-05T14:07:41.684Z,18.80
2023-05-05T14:10:12.230Z,18.74
2023-05-05T14:12:42.398Z,18.26
2023-05-05T14:15:13.056Z,18.20
2023-05-05T14:17:43.643Z,18.46
2023-05-05T14:20:14.441Z,18.60
2023-05-05T14:22:44.462Z,18.63
2023-05-05T14:25:14.652Z,18.72
2023-05-05T14:27:44.664Z,18.68
2023-05-05T14:30:16.003Z,18.76
2023-05-05T14:32:46.085Z,18.74
2023-05-05T14:35:16.342Z,18.82
2023-05-05T14:37:46.351Z,18.93
2023-05-05T14:40:16.153Z,18.97
2023-05-05T14:42:48.939Z,18.77
2023-05-05T14:45:19.020Z,18.79
2023-05-05T14:47:49.238Z,18.95
2023-05-05T14:50:20.244Z,19.02
2023-05-05T14:52:50.351Z,19.02
2023-05-05T14:55:20.801Z,18.83
2023-05-05T14:57:51.310Z,18.61
2023-05-05T15:00:22.156Z,18.15
2023-05-05T15:02:54.162Z,18.20
2023-05-05T15:05:24.377Z,18.34
2023-05-05T15:07:54.314Z,18.33
2023-05-05T15:10:27.684Z,18.32
2023-05-05T15:12:57.915Z,18.53
2023-05-05T15:15:27.769Z,18.75
2023-05-05T15:17:57.851Z,18.86
2023-05-05T15:20:28.153Z,18.78
2023-05-05T15:22:59.053Z,18.68
2023-05-05T15:25:29.016Z,18.55
2023-05-05T15:28:00.634Z,18.62
2023-05-05T15:30:30.670Z,18.55
2023-05-05T15:33:00.938Z,18.32
2023-05-05T15:35:30.960Z,18.21
2023-05-05T15:38:01.152Z,18.08
2023-05-05T15:40:31.271Z,18.08
2023-05-05T15:43:01.475Z,17.96
2023-05-05T15:45:31.463Z,18.15
2023-05-05T15:48:01.831Z,18.31
2023-05-05T15:50:31.984Z,18.45
2023-05-05T15:53:02.051Z,18.43
2023-05-05T15:55:32.539Z,18.35
2023-05-05T15:58:02.610Z,18.29
2023-05-05T16:00:32.513Z,18.37
2023-05-05T16:03:03.013Z,18.46
2023-05-05T16:05:32.915Z,18.55
2023-05-05T16:08:09.339Z,18.25
2023-05-05T16:10:39.510Z,18.12
2023-05-05T16:13:10.185Z,18.04
2023-05-05T16:15:40.672Z,18.07
2023-05-05T16:18:11.201Z,18.00
2023-05-05T16:20:41.712Z,17.91
2023-05-05T16:23:11.923Z,17.80
2023-05-05T16:25:42.128Z,17.86
2023-05-05T16:28:12.360Z,18.03
2023-05-05T16:30:44.520Z,18.00
2023-05-05T16:33:14.656Z,17.94
2023-05-05T16:35:46.631Z,17.88
2023-05-05T16:38:16.765Z,17.76
2023-05-05T16:40:46.739Z,17.73
2023-05-05T16:43:16.655Z,17.64
2023-05-05T16:45:47.078Z,17.57
2023-05-05T16:48:18.154Z,17.29
2023-05-05T16:50:48.473Z,17.14
2023-05-05T16:53:18.605Z,16.97
2023-05-05T16:55:52.098Z,16.81
2023-05-05T16:58:25.392Z,16.70
2023-05-05T17:00:58.048Z,16.58
2023-05-05T17:03:28.049Z,16.57
2023-05-05T17:05:58.033Z,16.46
2023-05-05T17:08:29.433Z,16.41
2023-05-05T17:10:59.557Z,16.40
2023-05-05T17:13:32.564Z,16.34
2023-05-05T17:16:02.746Z,16.32
2023-05-05T17:18:33.070Z,16.31
2023-05-05T17:21:03.551Z,16.25
2023-05-05T17:23:36.129Z,16.25
2023-05-05T17:26:06.046Z,16.21
2023-05-05T17:28:36.271Z,16.10
2023-05-05T17:31:06.506Z,16.02
2023-05-05T17:33:36.338Z,15.96
2023-05-05T17:36:07.477Z,15.92
2023-05-05T17:38:37.528Z,15.79
2023-05-05T17:41:07.575Z,15.67
2023-05-05T17:43:37.895Z,15.58
2023-05-05T17:46:08.057Z,15.49
2023-05-05T17:48:38.496Z,15.39
2023-05-05T17:51:08.342Z,15.27
2023-05-05T17:53:38.198Z,15.19
2023-05-05T17:56:09.123Z,15.07
2023-05-05T17:58:41.866Z,15.02
2023-05-05T18:01:20.320Z,14.94
2023-05-05T18:03:53.316Z,14.82
2023-05-05T18:06:23.586Z,14.66
2023-05-05T18:08:54.220Z,14.57
2023-05-05T18:11:27.401Z,14.50
2023-05-05T18:14:00.825Z,14.41
2023-05-05T18:16:31.428Z,14.33
2023-05-05T18:19:01.700Z,14.22
2023-05-05T18:21:32.796Z,14.15
2023-05-05T18:24:15.800Z,14.04
2023-05-05T18:26:51.966Z,13.97
2023-05-05T18:29:23.648Z,13.88
2023-05-05T18:31:54.368Z,13.78
2023-05-05T18:34:25.198Z,13.70
2023-05-05T18:36:55.889Z,13.58
2023-05-05T18:39:26.501Z,13.52
2023-05-05T18:41:56.510Z,13.46
2023-05-05T18:44:27.220Z,13.38
2023-05-05T18:47:01.181Z,13.27
2023-05-05T18:49:31.787Z,13.20
2023-05-05T18:52:03.835Z,13.15
2023-05-05T18:54:40.064Z,13.12
2023-05-05T18:57:37.034Z,13.07
2023-05-05T19:00:38.221Z,12.99
2023-05-05T19:03:08.974Z,12.88
2023-05-05T19:05:41.247Z,12.78
2023-05-05T19:08:15.708Z,12.69
2023-05-05T19:10:45.859Z,12.58
2023-05-05T19:13:16.216Z,12.51
2023-05-05T19:15:49.396Z,12.46
2023-05-05T19:18:23.091Z,12.41
2023-05-05T19:20:56.199Z,12.33
2023-05-05T19:23:30.758Z,12.28
2023-05-05T19:26:03.158Z,12.21
2023-05-05T19:28:39.115Z,12.19
2023-05-05T19:31:08.993Z,12.16
2023-05-05T19:33:42.314Z,12.14
2023-05-05T19:36:16.238Z,12.12
2023-05-05T19:38:46.757Z,12.03
2023-05-05T19:41:17.590Z,12.00
2023-05-05T19:43:48.157Z,11.99
2023-05-05T19:46:18.256Z,11.91
2023-05-05T19:48:49.298Z,11.85
2023-05-05T19:51:19.177Z,11.83
2023-05-05T19:53:49.838Z,11.76
2023-05-05T19:56:25.397Z,11.76
2023-05-05T19:58:58.556Z,11.73
2023-05-05T20:01:32.716Z,11.71
2023-05-05T20:04:03.806Z,11.66
2023-05-05T20:06:35.232Z,11.63
2023-05-05T20:09:05.667Z,11.61
2023-05-05T20:11:36.129Z,11.63
2023-05-05T20:14:05.998Z,11.62
2023-05-05T20:16:36.136Z,11.55
2023-05-05T20:19:05.981Z,11.51
2023-05-05T20:21:36.791Z,11.48
2023-05-05T20:24:08.447Z,11.46
2023-05-05T20:26:38.385Z,11.42
2023-05-05T20:29:11.297Z,11.39
2023-05-05T20:31:45.106Z,11.30
2023-05-05T20:34:15.830Z,11.26
2023-05-05T20:36:46.475Z,11.25
2023-05-05T20:39:17.151Z,11.25
2023-05-05T20:41:47.357Z,11.23
2023-05-05T20:44:17.335Z,11.23
2023-05-05T20:46:47.323Z,11.21
2023-05-05T20:49:17.353Z,11.19
2023-05-05T20:51:47.318Z,11.17
2023-05-05T20:54:17.256Z,11.17
2023-05-05T20:56:47.034Z,11.18
2023-05-05T20:59:16.926Z,11.13
2023-05-05T21:01:47.076Z,11.08
2023-05-05T21:04:16.983Z,11.08
2023-05-05T21:06:46.897Z,11.10
2023-05-05T21:09:17.171Z,11.08
2023-05-05T21:11:47.109Z,11.03
2023-05-05T21:14:16.840Z,10.98
2023-05-05T21:16:47.915Z,10.96
2023-05-05T21:19:21.744Z,10.94
2023-05-05T21:21:51.868Z,10.89
2023-05-05T21:24:22.096Z,10.85
2023-05-05T21:26:52.281Z,10.80
2023-05-05T21:29:25.756Z,10.75
2023-05-05T21:31:55.769Z,10.71
2023-05-05T21:34:25.848Z,10.67
2023-05-05T21:36:56.859Z,10.64
2023-05-05T21:39:27.811Z,10.58
2023-05-05T21:41:58.441Z,10.53
2023-05-05T21:44:28.448Z,10.53
2023-05-05T21:46:58.428Z,10.49
2023-05-05T21:49:28.332Z,10.49
2023-05-05T21:51:58.552Z,10.46
2023-05-05T21:54:28.437Z,10.47
2023-05-05T21:56:58.606Z,10.49
2023-05-05T21:59:28.673Z,10.51
2023-05-05T22:01:58.484Z,10.43
2023-05-05T22:04:28.891Z,10.38
2023-05-05T22:06:58.979Z,10.30
2023-05-05T22:09:29.259Z,10.27
2023-05-05T22:11:59.760Z,10.16
2023-05-05T22:14:29.950Z,10.08
2023-05-05T22:16:59.981Z,10.10
2023-05-05T22:19:30.778Z,10.05
2023-05-05T22:22:01.022Z,10.02
2023-05-05T22:24:31.546Z,9.98
2023-05-05T22:27:01.753Z,9.95
2023-05-05T22:29:31.699Z,9.88
2023-05-05T22:32:01.920Z,9.84
2023-05-05T22:34:32.032Z,9.82
2023-05-05T22:37:02.632Z,9.79
2023-05-05T22:39:33.063Z,9.77
2023-05-05T22:42:03.515Z,9.74
2023-05-05T22:44:33.510Z,9.69
2023-05-05T22:47:03.601Z,9.65
2023-05-05T22:49:33.773Z,9.61
2023-05-05T22:52:03.706Z,9.53
2023-05-05T22:54:33.730Z,9.53
2023-05-05T22:57:03.589Z,9.50
2023-05-05T22:59:33.627Z,9.45
2023-05-05T23:02:03.617Z,9.39
2023-05-05T23:04:33.592Z,9.37
2023-05-05T23:07:03.470Z,9.37
2023-05-05T23:09:33.260Z,9.34
2023-05-05T23:12:06.366Z,9.31
2023-05-05T23:14:36.759Z,9.24
2023-05-05T23:17:07.081Z,9.22
2023-05-05T23:19:37.399Z,9.18
2023-05-05T23:22:07.395Z,9.18
2023-05-05T23:24:37.313Z,9.15
2023-05-05T23:27:07.389Z,9.13
2023-05-05T23:29:37.316Z,9.11
2023-05-05T23:32:07.553Z,9.08
2023-05-05T23:34:37.464Z,9.05
2023-05-05T23:37:07.470Z,9.01
2023-05-05T23:39:37.517Z,8.95
2023-05-05T23:42:07.442Z,8.94
2023-05-05T23:44:37.395Z,8.91
2023-05-05T23:47:07.744Z,8.91
2023-05-05T23:49:38.459Z,8.90
2023-05-05T23:52:08.310Z,8.87
2023-05-05T23:54:38.634Z,8.85
2023-05-05T23:57:08.638Z,8.82
2023-05-05T23:59:39.116Z,8.81
